createdAt,value
2019-05-29T00:01:20.377Z,156.85
2019-05-29T00:03:45.639Z,157.10
2019-05-29T00:06:12.655Z,155.87
2019-05-29T00:08:40.830Z,157.72
2019-05-29T00:11:08.061Z,155.90
2019-05-29T00:13:35.162Z,155.05
2019-05-29T00:16:02.232Z,154.27
2019-05-29T00:18:29.649Z,155.37
2019-05-29T00:20:56.817Z,155.70
2019-05-29T00:23:23.994Z,156.40
2019-05-29T00:25:51.203Z,155.05
2019-05-29T00:28:18.326Z,155.43
2019-05-29T00:30:45.896Z,154.82
2019-05-29T00:33:14.308Z,154.42
2019-05-29T00:35:41.776Z,154.18
2019-05-29T00:38:10.703Z,152.87
2019-05-29T00:40:39.067Z,152.95
2019-05-29T00:43:07.332Z,154.82
2019-05-29T00:45:37.274Z,153.65
2019-05-29T00:48:04.326Z,154.00
2019-05-29T00:50:31.421Z,152.82
2019-05-29T00:53:00.058Z,154.25
2019-05-29T00:55:27.307Z,152.80
2019-05-29T00:57:54.391Z,154.18
2019-05-29T01:00:21.644Z,152.95
2019-05-29T01:02:52.441Z,153.40
2019-05-29T01:05:20.180Z,153.23
2019-05-29T01:07:49.012Z,154.72
2019-05-29T01:10:16.793Z,155.78
2019-05-29T01:12:43.768Z,154.68
2019-05-29T01:15:13.332Z,154.25
2019-05-29T01:17:40.743Z,154.97
2019-05-29T01:20:07.748Z,154.53
2019-05-29T01:22:34.829Z,155.18
2019-05-29T01:25:01.921Z,156.28
2019-05-29T01:27:28.950Z,155.75
2019-05-29T01:29:56.003Z,156.90
2019-05-29T01:32:24.529Z,156.15
2019-05-29T01:34:51.693Z,155.55
2019-05-29T01:37:19.934Z,153.90
2019-05-29T01:39:48.044Z,153.90
2019-05-29T01:42:15.220Z,153.32
2019-05-29T01:44:42.358Z,158.72
2019-05-29T01:47:09.602Z,153.45
2019-05-29T01:49:38.454Z,154.18
2019-05-29T01:52:05.539Z,153.75
2019-05-29T01:54:32.644Z,154.45
2019-05-29T01:56:59.980Z,154.27
2019-05-29T01:59:28.818Z,156.72
2019-05-29T02:01:56.104Z,153.75
2019-05-29T02:04:24.203Z,154.15
2019-05-29T02:06:51.505Z,153.68
2019-05-29T02:09:18.633Z,154.65
2019-05-29T02:11:45.787Z,153.25
2019-05-29T02:14:12.829Z,156.20
2019-05-29T02:16:39.916Z,155.12
2019-05-29T02:19:09.143Z,155.18
2019-05-29T02:21:37.340Z,157.80
2019-05-29T02:24:04.509Z,156.78
2019-05-29T02:26:32.884Z,156.95
2019-05-29T02:28:59.935Z,157.50
2019-05-29T02:31:29.796Z,155.43
2019-05-29T02:33:56.834Z,156.50
2019-05-29T02:36:24.602Z,155.10
2019-05-29T02:38:52.314Z,157.35
2019-05-29T02:41:21.172Z,159.80
2019-05-29T02:43:50.194Z,155.72
2019-05-29T02:46:17.244Z,155.72
2019-05-29T02:48:44.275Z,156.72
2019-05-29T02:51:12.345Z,156.82
2019-05-29T02:53:39.671Z,158.30
2019-05-29T02:56:06.724Z,157.78
2019-05-29T02:58:33.801Z,158.82
2019-05-29T03:01:02.782Z,159.48
2019-05-29T03:03:37.998Z,157.57
2019-05-29T03:05:59.345Z,156.30
2019-05-29T03:08:27.663Z,156.97
2019-05-29T03:10:55.444Z,157.35
2019-05-29T03:13:25.468Z,157.03
2019-05-29T03:16:08.504Z,155.60
2019-05-29T03:18:23.774Z,154.75
2019-05-29T03:20:50.884Z,156.22
2019-05-29T03:23:19.885Z,155.80
2019-05-29T03:25:46.900Z,158.30
2019-05-29T03:28:15.077Z,156.85
2019-05-29T03:30:46.103Z,156.25
2019-05-29T03:33:11.765Z,155.87
2019-05-29T03:35:47.099Z,156.40
2019-05-29T03:38:07.963Z,156.28
2019-05-29T03:40:35.324Z,155.12
2019-05-29T03:43:02.715Z,157.43
2019-05-29T03:45:31.329Z,155.37
2019-05-29T03:47:58.694Z,155.35
2019-05-29T03:50:26.676Z,157.35
2019-05-29T03:52:54.774Z,156.00
2019-05-29T03:55:21.805Z,153.80
2019-05-29T03:57:48.844Z,153.95
2019-05-29T04:00:16.095Z,155.60
2019-05-29T04:02:43.143Z,156.37
2019-05-29T04:05:11.164Z,154.97
2019-05-29T04:07:38.600Z,156.25
2019-05-29T04:10:07.273Z,154.00
2019-05-29T04:12:38.076Z,155.35
2019-05-29T04:15:05.925Z,152.75
2019-05-29T04:17:35.679Z,155.00
2019-05-29T04:20:03.961Z,155.22
2019-05-29T04:22:40.440Z,153.93
2019-05-29T04:25:08.225Z,154.60
2019-05-29T04:27:38.667Z,154.70
2019-05-29T04:30:06.123Z,155.35
2019-05-29T04:32:34.192Z,153.18
2019-05-29T04:35:01.555Z,153.90
2019-05-29T04:37:30.151Z,153.15
2019-05-29T04:39:57.684Z,154.00
2019-05-29T04:42:24.973Z,153.27
2019-05-29T04:44:53.841Z,154.65
2019-05-29T04:47:21.974Z,153.55
2019-05-29T04:49:50.111Z,156.47
2019-05-29T04:52:17.176Z,154.35
2019-05-29T04:54:44.308Z,155.50
2019-05-29T04:57:11.344Z,155.10
2019-05-29T04:59:39.240Z,154.85
2019-05-29T05:02:06.460Z,155.55
2019-05-29T05:04:37.264Z,156.12
2019-05-29T05:07:04.502Z,157.00
2019-05-29T05:09:33.428Z,156.22
2019-05-29T05:12:04.157Z,156.85
2019-05-29T05:14:31.747Z,158.42
2019-05-29T05:16:59.194Z,158.97
2019-05-29T05:19:31.794Z,156.65
2019-05-29T05:21:59.168Z,156.95
2019-05-29T05:24:27.693Z,156.95
2019-05-29T05:26:54.918Z,155.63
2019-05-29T05:29:22.929Z,156.37
2019-05-29T05:31:50.181Z,156.50
2019-05-29T05:34:17.216Z,154.05
2019-05-29T05:36:50.390Z,159.50
2019-05-29T05:39:31.203Z,154.97
2019-05-29T05:41:58.282Z,157.52
2019-05-29T05:44:25.529Z,157.20
2019-05-29T05:46:52.946Z,156.52
2019-05-29T05:49:20.023Z,153.97
2019-05-29T05:51:47.074Z,156.80
2019-05-29T05:54:14.598Z,153.90
2019-05-29T05:56:42.114Z,156.47
2019-05-29T05:59:10.239Z,156.72
2019-05-29T06:01:38.402Z,158.37
2019-05-29T06:04:05.574Z,156.70
2019-05-29T06:06:33.841Z,157.65
2019-05-29T06:09:00.937Z,155.70
2019-05-29T06:11:28.151Z,156.22
2019-05-29T06:13:55.195Z,155.15
2019-05-29T06:16:22.303Z,155.12
2019-05-29T06:18:49.419Z,156.25
2019-05-29T06:21:16.497Z,155.32
2019-05-29T06:23:43.854Z,159.72
2019-05-29T06:26:12.216Z,161.37
2019-05-29T06:28:41.629Z,159.45
2019-05-29T06:31:09.061Z,156.67
2019-05-29T06:33:37.845Z,157.10
2019-05-29T06:36:05.261Z,156.43
2019-05-29T06:38:33.632Z,156.35
2019-05-29T06:41:04.041Z,156.63
2019-05-29T06:43:35.819Z,156.52
2019-05-29T06:46:03.954Z,157.30
2019-05-29T06:48:42.586Z,156.28
2019-05-29T06:51:04.043Z,157.15
2019-05-29T06:53:31.214Z,158.05
2019-05-29T06:56:01.055Z,157.03
2019-05-29T06:58:31.821Z,158.15
2019-05-29T07:01:00.455Z,158.78
2019-05-29T07:03:29.778Z,159.10
2019-05-29T07:05:58.766Z,160.50
2019-05-29T07:08:39.109Z,159.87
2019-05-29T07:11:00.740Z,161.55
2019-05-29T07:13:35.181Z,160.52
2019-05-29T07:16:02.327Z,158.72
2019-05-29T07:18:38.986Z,162.10
2019-05-29T07:21:07.745Z,160.32
2019-05-29T07:23:39.063Z,160.55
2019-05-29T07:26:11.320Z,161.37
2019-05-29T07:29:03.044Z,161.88
2019-05-29T07:31:16.548Z,160.43
2019-05-29T07:33:43.678Z,162.18
2019-05-29T07:36:11.064Z,162.18
2019-05-29T07:38:39.558Z,160.18
2019-05-29T07:41:06.943Z,158.87
2019-05-29T07:43:33.973Z,160.15
2019-05-29T07:46:01.151Z,160.25
2019-05-29T07:48:28.192Z,162.45
2019-05-29T07:51:06.586Z,161.18
2019-05-29T07:53:24.340Z,160.18
2019-05-29T07:55:51.416Z,162.27
2019-05-29T07:58:18.494Z,160.55
2019-05-29T08:01:07.680Z,161.97
2019-05-29T08:03:14.711Z,163.47
2019-05-29T08:05:46.201Z,161.77
2019-05-29T08:08:13.512Z,163.05
2019-05-29T08:10:41.746Z,162.20
2019-05-29T08:13:09.082Z,161.97
2019-05-29T08:15:51.970Z,160.05
2019-05-29T08:18:05.993Z,163.50
2019-05-29T08:20:33.052Z,160.82
2019-05-29T08:23:00.098Z,162.22
2019-05-29T08:25:27.164Z,162.32
2019-05-29T08:27:54.789Z,164.57
2019-05-29T08:30:26.309Z,163.47
2019-05-29T08:32:56.581Z,161.88
2019-05-29T08:35:23.865Z,161.85
2019-05-29T08:37:53.892Z,163.28
2019-05-29T08:40:21.316Z,163.70
2019-05-29T08:42:49.315Z,163.35
2019-05-29T08:45:16.474Z,163.68
2019-05-29T08:47:43.595Z,161.73
2019-05-29T08:50:18.309Z,161.70
2019-05-29T08:52:39.617Z,163.37
2019-05-29T08:55:07.470Z,207.40
2019-05-29T08:57:34.520Z,160.32
2019-05-29T09:00:01.719Z,160.55
2019-05-29T09:02:28.967Z,162.10
2019-05-29T09:04:56.013Z,163.07
2019-05-29T09:07:24.654Z,162.95
2019-05-29T09:09:51.713Z,163.20
2019-05-29T09:12:18.814Z,163.00
2019-05-29T09:14:45.893Z,162.10
2019-05-29T09:17:14.621Z,162.80
2019-05-29T09:19:41.892Z,163.12
2019-05-29T09:22:09.227Z,162.10
2019-05-29T09:24:36.377Z,163.00
2019-05-29T09:27:03.473Z,162.12
2019-05-29T09:29:30.637Z,163.72
2019-05-29T09:31:57.663Z,162.72
2019-05-29T09:34:24.770Z,164.30
2019-05-29T09:36:55.483Z,164.45
2019-05-29T09:39:21.093Z,165.60
2019-05-29T09:41:48.287Z,163.90
2019-05-29T09:44:31.167Z,163.43
2019-05-29T09:46:45.660Z,163.62
2019-05-29T09:49:13.057Z,165.35
2019-05-29T09:51:40.310Z,164.35
2019-05-29T09:54:07.498Z,165.22
2019-05-29T09:56:34.519Z,166.43
2019-05-29T09:59:01.831Z,166.28
2019-05-29T10:01:30.548Z,164.72
2019-05-29T10:04:00.044Z,165.07
2019-05-29T10:06:28.362Z,163.97
2019-05-29T10:08:56.223Z,164.15
2019-05-29T10:11:23.929Z,164.05
2019-05-29T10:13:50.982Z,164.95
2019-05-29T10:16:18.009Z,162.82
2019-05-29T10:18:45.280Z,162.97
2019-05-29T10:21:13.471Z,167.03
2019-05-29T10:23:40.598Z,166.40
2019-05-29T10:26:07.865Z,167.00
2019-05-29T10:28:49.961Z,165.90
2019-05-29T10:31:04.880Z,168.05
2019-05-29T10:33:32.185Z,164.43
2019-05-29T10:36:03.447Z,167.28
2019-05-29T10:38:28.373Z,165.90
2019-05-29T10:41:05.840Z,164.55
2019-05-29T10:43:34.169Z,163.60
2019-05-29T10:45:55.272Z,164.05
2019-05-29T10:48:22.626Z,165.07
2019-05-29T10:50:52.165Z,164.77
2019-05-29T10:53:20.523Z,164.70
2019-05-29T10:55:48.597Z,165.43
2019-05-29T10:58:15.909Z,164.28
2019-05-29T11:00:45.414Z,165.10
2019-05-29T11:03:12.629Z,165.55
2019-05-29T11:05:39.695Z,165.95
2019-05-29T11:08:06.733Z,166.22
2019-05-29T11:10:33.796Z,166.68
2019-05-29T11:13:00.891Z,168.57
2019-05-29T11:15:27.931Z,167.43
2019-05-29T11:17:55.396Z,166.22
2019-05-29T11:20:22.642Z,167.10
2019-05-29T11:22:49.772Z,165.55
2019-05-29T11:25:23.586Z,164.97
2019-05-29T11:27:50.501Z,166.30
2019-05-29T11:30:17.951Z,163.87
2019-05-29T11:32:47.513Z,162.88
2019-05-29T11:35:14.156Z,163.85
2019-05-29T11:37:41.214Z,164.20
2019-05-29T11:40:08.578Z,163.22
2019-05-29T11:42:35.916Z,164.20
2019-05-29T11:45:05.006Z,163.87
2019-05-29T11:47:34.056Z,165.60
2019-05-29T11:50:16.617Z,163.82
2019-05-29T11:52:42.952Z,164.55
2019-05-29T11:55:08.114Z,164.18
2019-05-29T11:57:39.748Z,168.10
2019-05-29T12:00:19.407Z,167.72
2019-05-29T12:02:39.813Z,168.95
2019-05-29T12:05:09.213Z,167.65
2019-05-29T12:07:36.284Z,169.75
2019-05-29T12:10:05.617Z,168.17
2019-05-29T12:12:34.135Z,169.40
2019-05-29T12:15:10.957Z,169.17
2019-05-29T12:17:32.517Z,174.27
2019-05-29T12:20:01.187Z,175.62
2019-05-29T12:22:28.746Z,173.07
2019-05-29T12:24:56.534Z,171.35
2019-05-29T12:27:25.297Z,171.95
2019-05-29T12:29:52.673Z,169.40
2019-05-29T12:32:19.764Z,171.20
2019-05-29T12:34:53.617Z,170.25
2019-05-29T12:37:17.530Z,173.53
2019-05-29T12:39:44.616Z,166.03
2019-05-29T12:42:11.702Z,164.80
2019-05-29T12:44:38.777Z,166.12
2019-05-29T12:47:06.536Z,163.70
2019-05-29T12:49:33.899Z,162.55
2019-05-29T12:52:02.362Z,164.30
2019-05-29T12:54:30.236Z,164.75
2019-05-29T12:56:57.861Z,165.07
2019-05-29T12:59:25.864Z,167.30
2019-05-29T13:01:58.505Z,168.22
2019-05-29T13:05:02.536Z,169.05
2019-05-29T13:07:04.575Z,165.52
2019-05-29T13:09:31.853Z,165.32
2019-05-29T13:11:58.909Z,169.47
2019-05-29T13:14:27.755Z,173.50
2019-05-29T13:16:54.998Z,175.47
2019-05-29T13:19:22.035Z,169.87
2019-05-29T13:21:49.203Z,173.35
2019-05-29T13:24:16.381Z,169.60
2019-05-29T13:26:44.337Z,170.43
2019-05-29T13:29:11.388Z,170.80
2019-05-29T13:31:38.574Z,170.45
2019-05-29T13:34:09.200Z,169.37
2019-05-29T13:36:36.327Z,170.43
2019-05-29T13:39:07.173Z,171.13
2019-05-29T13:41:34.340Z,171.28
2019-05-29T13:44:02.769Z,174.53
2019-05-29T13:46:31.358Z,174.80
2019-05-29T13:48:58.906Z,175.87
2019-05-29T13:51:26.449Z,179.23
2019-05-29T13:54:04.782Z,182.25
2019-05-29T13:56:24.363Z,173.82
2019-05-29T13:58:51.562Z,175.90
2019-05-29T14:01:18.652Z,173.82
2019-05-29T14:03:50.205Z,173.93
2019-05-29T14:06:14.708Z,169.35
2019-05-29T14:08:41.803Z,170.35
2019-05-29T14:11:09.163Z,169.13
2019-05-29T14:13:42.544Z,171.22
2019-05-29T14:16:09.720Z,172.40
2019-05-29T14:18:47.448Z,170.02
2019-05-29T14:21:14.640Z,171.10
2019-05-29T14:23:42.188Z,172.47
2019-05-29T14:26:10.615Z,169.28
2019-05-29T14:28:38.742Z,171.80
2019-05-29T14:31:06.027Z,174.42
2019-05-29T14:33:35.140Z,177.75
2019-05-29T14:36:03.434Z,171.50
2019-05-29T14:38:30.797Z,173.55
2019-05-29T14:40:57.882Z,169.90
2019-05-29T14:43:28.080Z,167.53
2019-05-29T14:45:57.029Z,169.77
2019-05-29T14:48:24.454Z,169.55
2019-05-29T14:50:51.558Z,167.55
2019-05-29T14:53:18.620Z,165.77
2019-05-29T14:55:52.568Z,167.77
2019-05-29T14:58:20.241Z,172.57
2019-05-29T15:00:47.332Z,169.13
2019-05-29T15:03:14.419Z,168.65
2019-05-29T15:05:44.224Z,172.80
2019-05-29T15:08:14.176Z,167.85
2019-05-29T15:10:41.361Z,165.75
2019-05-29T15:13:09.171Z,166.88
2019-05-29T15:15:37.378Z,166.43
2019-05-29T15:18:06.872Z,165.92
2019-05-29T15:20:34.175Z,165.92
2019-05-29T15:23:02.521Z,165.80
2019-05-29T15:25:31.332Z,165.75
2019-05-29T15:27:58.423Z,164.72
2019-05-29T15:30:25.462Z,166.45
2019-05-29T15:32:52.605Z,170.00
2019-05-29T15:35:20.218Z,170.02
2019-05-29T15:37:47.544Z,171.55
2019-05-29T15:40:15.094Z,171.60
2019-05-29T15:42:42.140Z,172.85
2019-05-29T15:45:11.894Z,177.27
2019-05-29T15:47:41.210Z,179.38
2019-05-29T15:50:11.379Z,175.35
2019-05-29T15:52:38.723Z,173.95
2019-05-29T15:55:22.012Z,173.75
2019-05-29T15:57:36.848Z,171.22
2019-05-29T16:00:05.050Z,167.82
2019-05-29T16:02:32.630Z,168.68
2019-05-29T16:04:59.759Z,168.75
2019-05-29T16:07:27.609Z,169.35
2019-05-29T16:09:54.646Z,171.53
2019-05-29T16:12:21.724Z,176.40
2019-05-29T16:14:50.643Z,173.35
2019-05-29T16:17:17.891Z,172.17
2019-05-29T16:19:45.117Z,176.87
2019-05-29T16:22:12.497Z,177.70
2019-05-29T16:24:39.662Z,177.62
2019-05-29T16:27:10.616Z,179.63
2019-05-29T16:29:38.829Z,179.10
2019-05-29T16:32:05.953Z,171.40
2019-05-29T16:34:33.096Z,172.35
2019-05-29T16:37:00.304Z,172.02
2019-05-29T16:39:27.430Z,167.45
2019-05-29T16:41:56.362Z,169.68
2019-05-29T16:44:29.215Z,169.90
2019-05-29T16:46:52.789Z,173.25
2019-05-29T16:49:21.267Z,171.62
2019-05-29T16:51:48.940Z,169.00
2019-05-29T16:54:17.197Z,168.37
2019-05-29T16:56:44.367Z,171.40
2019-05-29T16:59:11.436Z,171.68
2019-05-29T17:01:38.483Z,172.00
2019-05-29T17:04:05.589Z,170.85
2019-05-29T17:06:32.666Z,170.62
2019-05-29T17:09:01.545Z,169.43
2019-05-29T17:11:31.999Z,170.82
2019-05-29T17:14:08.598Z,172.22
2019-05-29T17:16:54.614Z,170.53
2019-05-29T17:19:23.161Z,172.32
2019-05-29T17:21:51.590Z,172.78
2019-05-29T17:24:18.762Z,169.13
2019-05-29T17:26:45.943Z,170.15
2019-05-29T17:29:13.000Z,168.50
2019-05-29T17:31:40.577Z,170.80
2019-05-29T17:34:08.699Z,167.60
2019-05-29T17:36:35.865Z,167.00
2019-05-29T17:39:05.969Z,165.18
2019-05-29T17:41:33.429Z,166.40
2019-05-29T17:44:00.534Z,168.97
2019-05-29T17:46:27.637Z,164.47
2019-05-29T17:48:56.393Z,164.88
2019-05-29T17:51:24.163Z,166.55
2019-05-29T17:53:51.357Z,167.13
2019-05-29T17:56:31.754Z,170.12
2019-05-29T17:58:50.902Z,166.22
2019-05-29T18:01:18.263Z,167.70
2019-05-29T18:03:45.534Z,167.45
2019-05-29T18:06:12.677Z,170.55
2019-05-29T18:08:41.659Z,171.30
2019-05-29T18:11:10.485Z,170.38
2019-05-29T18:13:38.993Z,172.00
2019-05-29T18:16:06.532Z,168.65
2019-05-29T18:21:14.900Z,169.95
2019-05-29T18:23:42.002Z,169.82
2019-05-29T18:26:09.260Z,168.60
2019-05-29T18:28:37.509Z,168.47
2019-05-29T18:31:04.556Z,169.40
2019-05-29T18:33:33.222Z,170.00
2019-05-29T18:36:00.776Z,167.87
2019-05-29T18:38:30.815Z,168.35
2019-05-29T18:40:57.928Z,168.10
2019-05-29T18:43:25.016Z,167.57
2019-05-29T18:45:52.433Z,166.90
2019-05-29T18:48:19.508Z,168.07
2019-05-29T18:50:46.809Z,168.70
2019-05-29T18:53:14.494Z,170.57
2019-05-29T18:55:41.889Z,167.65
2019-05-29T18:58:08.993Z,166.22
2019-05-29T19:00:37.361Z,164.60
2019-05-29T19:03:05.183Z,163.20
2019-05-29T19:05:32.554Z,165.30
2019-05-29T19:07:59.653Z,165.12
2019-05-29T19:10:27.753Z,165.97
2019-05-29T19:12:55.341Z,167.13
2019-05-29T19:15:23.754Z,166.32
2019-05-29T19:17:51.253Z,165.95
2019-05-29T19:20:18.852Z,166.25
2019-05-29T19:22:45.935Z,165.30
2019-05-29T19:25:15.962Z,164.80
2019-05-29T19:27:47.228Z,161.62
2019-05-29T19:30:15.905Z,162.55
2019-05-29T19:32:43.220Z,162.85
2019-05-29T19:35:12.903Z,161.32
2019-05-29T19:37:41.985Z,161.80
2019-05-29T19:40:09.575Z,161.73
2019-05-29T19:42:37.606Z,159.93
2019-05-29T19:45:16.567Z,160.97
2019-05-29T19:48:08.635Z,160.57
2019-05-29T19:50:41.623Z,163.18
2019-05-29T19:53:09.170Z,160.03
2019-05-29T19:55:39.449Z,164.13
2019-05-29T19:58:08.477Z,163.55
2019-05-29T20:00:56.493Z,167.70
2019-05-29T20:03:23.607Z,162.57
2019-05-29T20:05:52.970Z,162.00
2019-05-29T20:08:24.177Z,164.70
2019-05-29T20:10:51.601Z,161.88
2019-05-29T20:13:22.426Z,160.75
2019-05-29T20:15:49.742Z,160.07
2019-05-29T20:18:16.923Z,159.15
2019-05-29T20:20:47.009Z,162.75
2019-05-29T20:23:14.431Z,160.03
2019-05-29T20:25:41.895Z,159.10
2019-05-29T20:28:11.762Z,160.30
2019-05-29T20:30:42.511Z,160.30
2019-05-29T20:33:10.068Z,162.00
2019-05-29T20:35:37.330Z,159.87
2019-05-29T20:38:07.539Z,157.70
2019-05-29T20:40:35.166Z,162.85
2019-05-29T20:43:02.408Z,159.10
2019-05-29T20:45:29.493Z,159.72
2019-05-29T20:47:56.540Z,159.70
2019-05-29T20:50:24.777Z,159.12
2019-05-29T20:52:53.042Z,160.65
2019-05-29T20:55:20.112Z,160.18
2019-05-29T20:57:57.201Z,160.05
2019-05-29T21:00:25.860Z,158.70
2019-05-29T21:02:53.078Z,158.93
2019-05-29T21:05:21.740Z,162.30
2019-05-29T21:07:48.838Z,161.43
2019-05-29T21:10:16.000Z,160.82
2019-05-29T21:12:47.454Z,160.80
2019-05-29T21:15:15.887Z,164.60
2019-05-29T21:17:49.680Z,160.00
2019-05-29T21:20:16.819Z,161.90
2019-05-29T21:22:44.958Z,159.67
2019-05-29T21:25:17.090Z,158.35
2019-05-29T21:27:45.397Z,161.75
2019-05-29T21:30:25.311Z,162.20
2019-05-29T21:32:52.938Z,159.70
2019-05-29T21:35:20.020Z,160.00
2019-05-29T21:37:47.494Z,160.30
2019-05-29T21:40:16.827Z,160.57
2019-05-29T21:42:47.004Z,158.97
2019-05-29T21:45:14.850Z,157.62
2019-05-29T21:47:43.578Z,159.27
2019-05-29T21:50:11.211Z,157.12
2019-05-29T21:52:39.469Z,157.85
2019-05-29T21:55:09.967Z,159.82
2019-05-29T21:57:43.901Z,159.52
2019-05-29T22:00:13.805Z,158.03
2019-05-29T22:02:44.507Z,158.03
2019-05-29T22:05:26.432Z,156.65
2019-05-29T22:08:02.233Z,158.70
2019-05-29T22:10:29.958Z,158.80
2019-05-29T22:12:58.550Z,157.78
2019-05-29T22:15:25.940Z,157.18
2019-05-29T22:17:53.200Z,160.00
2019-05-29T22:20:20.243Z,157.22
2019-05-29T22:22:47.330Z,157.75
2019-05-29T22:25:14.713Z,159.70
2019-05-29T22:27:42.876Z,157.20
2019-05-29T22:30:10.055Z,157.60
2019-05-29T22:32:37.118Z,157.85
2019-05-29T22:35:04.534Z,157.50
2019-05-29T22:37:32.116Z,156.85
2019-05-29T22:39:59.632Z,157.43
2019-05-29T22:42:28.655Z,157.45
2019-05-29T22:44:55.920Z,157.25
2019-05-29T22:47:23.169Z,155.97
2019-05-29T22:49:51.572Z,156.93
2019-05-29T22:52:18.903Z,157.37
2019-05-29T22:54:45.926Z,155.95
2019-05-29T22:57:12.997Z,160.72
2019-05-29T22:59:40.229Z,157.07
2019-05-29T23:02:09.864Z,156.90
2019-05-29T23:04:37.020Z,156.20
2019-05-29T23:07:05.248Z,156.93
2019-05-29T23:09:32.261Z,157.35
2019-05-29T23:12:00.490Z,158.65
2019-05-29T23:14:27.611Z,159.72
2019-05-29T23:16:54.678Z,158.60
2019-05-29T23:19:21.848Z,158.05
2019-05-29T23:21:49.517Z,155.95
2019-05-29T23:24:17.691Z,155.57
2019-05-29T23:26:44.861Z,156.35
2019-05-29T23:29:11.924Z,156.80
2019-05-29T23:31:39.042Z,154.82
2019-05-29T23:34:06.101Z,155.00
2019-05-29T23:36:35.258Z,155.63
2019-05-29T23:39:03.984Z,155.50
2019-05-29T23:41:31.038Z,154.40
2019-05-29T23:43:59.306Z,156.15
2019-05-29T23:46:26.606Z,155.50
2019-05-29T23:48:53.654Z,154.50
2019-05-29T23:51:20.737Z,153.27
2019-05-29T23:53:49.980Z,154.53
2019-05-29T23:56:17.301Z,153.97
2019-05-29T23:58:44.498Z,154.68
